createdAt,value
2017-12-23T00:00:20.378Z,15.33
2017-12-23T00:02:47.946Z,15.30
2017-12-23T00:05:15.564Z,14.90
2017-12-23T00:07:43.085Z,14.57
2017-12-23T00:10:10.656Z,14.70
2017-12-23T00:12:38.232Z,14.57
2017-12-23T00:15:05.776Z,14.80
2017-12-23T00:17:33.299Z,15.03
2017-12-23T00:20:01.613Z,16.90
2017-12-23T00:22:29.234Z,16.03
2017-12-23T00:24:56.764Z,15.23
2017-12-23T00:27:24.331Z,14.37
2017-12-23T00:29:51.860Z,15.60
2017-12-23T00:32:19.391Z,17.47
2017-12-23T00:34:46.909Z,15.30
2017-12-23T00:37:14.426Z,15.67
2017-12-23T00:39:41.972Z,15.77
2017-12-23T00:42:09.567Z,15.47
2017-12-23T00:44:37.083Z,17.03
2017-12-23T00:47:04.617Z,17.63
2017-12-23T00:49:32.186Z,17.10
2017-12-23T00:51:59.730Z,16.50
2017-12-23T00:54:28.313Z,17.20
2017-12-23T00:56:57.292Z,17.40
2017-12-23T00:59:25.515Z,17.93
2017-12-23T01:01:53.169Z,16.43
2017-12-23T01:04:20.683Z,16.73
2017-12-23T01:06:48.313Z,17.50
2017-12-23T01:09:16.102Z,17.57
2017-12-23T01:11:43.653Z,17.10
2017-12-23T01:14:11.165Z,16.90
2017-12-23T01:16:38.696Z,18.93
2017-12-23T01:19:06.219Z,15.70
2017-12-23T01:21:33.767Z,16.77
2017-12-23T01:24:02.147Z,17.40
2017-12-23T01:26:29.693Z,16.93
2017-12-23T01:28:57.278Z,15.63
2017-12-23T01:31:24.825Z,16.60
2017-12-23T01:33:52.355Z,16.20
2017-12-23T01:36:19.940Z,15.73
2017-12-23T01:38:48.264Z,16.93
2017-12-23T01:41:15.794Z,16.60
2017-12-23T01:43:43.332Z,17.50
2017-12-23T01:46:10.837Z,17.87
2017-12-23T01:48:38.404Z,17.93
2017-12-23T01:51:05.964Z,17.70
2017-12-23T01:53:33.574Z,16.70
2017-12-23T01:56:01.081Z,17.30
2017-12-23T01:58:29.385Z,16.47
2017-12-23T02:00:56.917Z,17.33
2017-12-23T02:03:24.492Z,17.80
2017-12-23T02:08:30.301Z,17.07
2017-12-23T02:10:57.818Z,18.17
2017-12-23T02:13:25.461Z,16.50
2017-12-23T02:15:53.020Z,17.07
2017-12-23T02:18:27.170Z,17.20
2017-12-23T02:20:55.458Z,16.93
2017-12-23T02:23:23.724Z,17.40
2017-12-23T02:25:51.317Z,16.33
2017-12-23T02:28:18.874Z,17.07
2017-12-23T02:30:46.454Z,16.87
2017-12-23T02:33:13.988Z,17.50
2017-12-23T02:35:41.492Z,16.80
2017-12-23T02:38:09.017Z,16.63
2017-12-23T02:40:36.525Z,17.30
2017-12-23T02:43:04.794Z,17.70
2017-12-23T02:45:32.322Z,17.13
2017-12-23T02:47:59.929Z,17.87
2017-12-23T02:50:27.471Z,18.07
2017-12-23T02:52:56.558Z,17.87
2017-12-23T02:55:24.926Z,18.03
2017-12-23T02:57:52.455Z,17.07
2017-12-23T03:00:19.974Z,17.40
2017-12-23T03:02:47.515Z,18.00
2017-12-23T03:05:15.076Z,17.07
2017-12-23T03:07:42.678Z,18.73
2017-12-23T03:10:10.227Z,16.07
2017-12-23T03:12:37.751Z,18.67
2017-12-23T03:15:06.168Z,18.40
2017-12-23T03:17:33.698Z,16.97
2017-12-23T03:20:07.786Z,17.97
2017-12-23T03:22:35.313Z,17.27
2017-12-23T03:25:02.855Z,18.93
2017-12-23T03:27:30.367Z,19.73
2017-12-23T03:29:57.926Z,17.90
2017-12-23T03:32:25.466Z,18.73
2017-12-23T03:34:53.775Z,19.63
2017-12-23T03:37:21.301Z,19.40
2017-12-23T03:39:48.863Z,19.03
2017-12-23T03:42:16.389Z,18.57
2017-12-23T03:44:44.684Z,20.00
2017-12-23T03:47:12.256Z,20.90
2017-12-23T03:49:39.865Z,20.93
2017-12-23T03:52:08.196Z,19.20
2017-12-23T03:54:36.464Z,19.00
2017-12-23T03:57:04.762Z,20.37
2017-12-23T03:59:32.358Z,21.20
2017-12-23T04:01:59.894Z,20.17
2017-12-23T04:04:28.243Z,20.30
2017-12-23T04:06:56.387Z,19.67
2017-12-23T04:09:24.058Z,21.00
2017-12-23T04:11:51.566Z,21.50
2017-12-23T04:14:19.105Z,21.73
2017-12-23T04:16:46.690Z,20.37
2017-12-23T04:19:14.235Z,21.07
2017-12-23T04:21:41.765Z,21.27
2017-12-23T04:24:10.180Z,21.17
2017-12-23T04:26:37.703Z,21.30
2017-12-23T04:29:05.231Z,20.50
2017-12-23T04:31:32.772Z,21.03
2017-12-23T04:34:01.069Z,19.80
2017-12-23T04:36:29.390Z,20.70
2017-12-23T04:38:56.913Z,19.90
2017-12-23T04:41:24.441Z,20.93
2017-12-23T04:43:52.750Z,19.57
2017-12-23T04:46:20.288Z,19.23
2017-12-23T04:48:47.882Z,20.30
2017-12-23T04:51:16.223Z,20.50
2017-12-23T04:53:43.800Z,20.93
2017-12-23T04:56:12.120Z,20.30
2017-12-23T04:58:39.684Z,20.70
2017-12-23T05:01:07.218Z,19.67
2017-12-23T05:03:34.776Z,20.10
2017-12-23T05:06:02.298Z,19.53
2017-12-23T05:08:29.833Z,20.47
2017-12-23T05:10:57.388Z,20.77
2017-12-23T05:13:24.899Z,20.53
2017-12-23T05:15:52.760Z,19.43
2017-12-23T05:18:20.347Z,20.07
2017-12-23T05:23:21.632Z,20.10
2017-12-23T05:25:49.175Z,19.93
2017-12-23T05:28:16.719Z,19.20
2017-12-23T05:30:44.267Z,19.40
2017-12-23T05:33:11.790Z,20.60
2017-12-23T05:35:39.333Z,20.37
2017-12-23T05:38:07.870Z,20.73
2017-12-23T05:40:36.214Z,21.47
2017-12-23T05:43:03.767Z,20.27
2017-12-23T05:45:31.332Z,19.67
2017-12-23T05:47:58.854Z,21.67
2017-12-23T05:50:26.401Z,19.47
2017-12-23T05:52:54.019Z,18.80
2017-12-23T05:55:21.552Z,19.47
2017-12-23T05:57:49.122Z,20.27
2017-12-23T06:00:16.997Z,18.03
2017-12-23T06:02:45.274Z,17.50
2017-12-23T06:05:12.896Z,19.00
2017-12-23T06:07:40.454Z,18.60
2017-12-23T06:10:08.011Z,18.03
2017-12-23T06:12:35.630Z,18.00
2017-12-23T06:15:03.180Z,17.77
2017-12-23T06:17:30.733Z,19.80
2017-12-23T06:19:59.034Z,17.77
2017-12-23T06:22:27.374Z,18.60
2017-12-23T06:24:55.011Z,17.83
2017-12-23T06:27:23.327Z,19.40
2017-12-23T06:29:50.850Z,17.07
2017-12-23T06:32:18.489Z,19.03
2017-12-23T06:34:46.095Z,18.83
2017-12-23T06:39:52.956Z,16.23
2017-12-23T06:42:21.241Z,18.33
2017-12-23T06:44:49.907Z,16.77
2017-12-23T06:47:17.430Z,17.70
2017-12-23T06:49:45.754Z,18.30
2017-12-23T06:54:51.984Z,18.50
2017-12-23T06:57:20.318Z,18.07
2017-12-23T06:59:48.034Z,17.23
2017-12-23T07:04:55.671Z,17.17
2017-12-23T07:07:30.000Z,17.90
2017-12-23T07:09:58.096Z,18.50
2017-12-23T07:12:26.555Z,18.57
2017-12-23T07:14:54.128Z,18.93
2017-12-23T07:17:21.697Z,18.60
2017-12-23T07:19:49.244Z,18.10
2017-12-23T07:22:16.875Z,19.47
2017-12-23T07:24:44.408Z,18.80
2017-12-23T07:27:12.180Z,17.70
2017-12-23T07:29:39.766Z,18.63
2017-12-23T07:32:08.125Z,19.10
2017-12-23T07:34:35.686Z,17.80
2017-12-23T07:37:03.245Z,17.70
2017-12-23T07:39:30.806Z,16.73
2017-12-23T07:41:58.323Z,17.63
2017-12-23T07:44:26.077Z,18.40
2017-12-23T07:46:53.805Z,16.93
2017-12-23T07:49:21.380Z,16.90
2017-12-23T07:51:49.685Z,17.67
2017-12-23T07:54:17.361Z,16.67
2017-12-23T07:56:44.899Z,18.87
2017-12-23T07:59:12.437Z,17.93
2017-12-23T08:01:39.964Z,16.53
2017-12-23T08:04:07.546Z,16.57
2017-12-23T08:06:35.106Z,16.80
2017-12-23T08:09:02.649Z,16.50
2017-12-23T08:11:30.221Z,17.60
2017-12-23T08:13:57.793Z,18.23
2017-12-23T08:16:25.365Z,16.20
2017-12-23T08:19:00.219Z,16.73
2017-12-23T08:21:27.826Z,17.77
2017-12-23T08:23:55.499Z,15.80
2017-12-23T08:26:23.044Z,16.97
2017-12-23T08:28:50.593Z,16.57
2017-12-23T08:31:18.165Z,16.57
2017-12-23T08:33:45.723Z,15.70
2017-12-23T08:36:13.263Z,17.90
2017-12-23T08:38:40.817Z,16.40
2017-12-23T08:41:08.394Z,18.13
2017-12-23T08:43:35.933Z,16.87
2017-12-23T08:46:04.269Z,17.13
2017-12-23T08:48:31.797Z,17.23
2017-12-23T08:50:59.328Z,17.30
2017-12-23T08:53:27.652Z,15.83
2017-12-23T08:55:55.170Z,15.23
2017-12-23T08:58:23.537Z,15.23
2017-12-23T09:00:51.131Z,15.43
2017-12-23T09:03:18.680Z,15.40
2017-12-23T09:05:46.986Z,15.30
2017-12-23T09:08:14.689Z,15.70
2017-12-23T09:10:42.241Z,16.17
2017-12-23T09:13:09.790Z,15.80
2017-12-23T09:15:37.395Z,16.43
2017-12-23T09:18:04.916Z,15.57
2017-12-23T09:20:32.468Z,16.30
2017-12-23T09:23:00.012Z,16.17
2017-12-23T09:25:27.560Z,16.50
2017-12-23T09:27:55.094Z,15.37
2017-12-23T09:30:22.710Z,14.37
2017-12-23T09:32:50.303Z,13.73
2017-12-23T09:35:18.578Z,14.00
2017-12-23T09:37:46.194Z,13.47
2017-12-23T09:40:13.752Z,15.07
2017-12-23T09:42:41.290Z,15.57
2017-12-23T09:45:08.877Z,15.60
2017-12-23T09:47:36.487Z,14.13
2017-12-23T09:50:04.058Z,14.83
2017-12-23T09:52:32.398Z,12.97
2017-12-23T09:54:59.914Z,13.50
2017-12-23T09:57:27.565Z,13.40
2017-12-23T09:59:56.028Z,13.00
2017-12-23T10:02:23.594Z,12.80
2017-12-23T10:04:51.149Z,12.90
2017-12-23T10:07:20.450Z,13.60
2017-12-23T10:09:48.001Z,13.67
2017-12-23T10:12:16.312Z,13.50
2017-12-23T10:14:44.010Z,14.40
2017-12-23T10:17:11.544Z,13.60
2017-12-23T10:19:39.893Z,13.30
2017-12-23T10:22:07.433Z,13.80
2017-12-23T10:24:35.026Z,14.03
2017-12-23T10:27:02.564Z,13.53
2017-12-23T10:29:30.266Z,13.17
2017-12-23T10:31:57.943Z,14.83
2017-12-23T10:34:25.514Z,11.70
2017-12-23T10:36:53.077Z,13.07
2017-12-23T10:39:20.640Z,12.93
2017-12-23T10:41:48.351Z,12.30
2017-12-23T10:44:16.665Z,11.80
2017-12-23T10:46:44.980Z,11.73
2017-12-23T10:49:12.536Z,11.97
2017-12-23T10:51:40.208Z,11.70
2017-12-23T10:54:07.757Z,11.60
2017-12-23T10:56:35.294Z,10.87
2017-12-23T10:59:02.845Z,10.87
2017-12-23T11:01:31.172Z,12.00
2017-12-23T11:03:58.811Z,10.80
2017-12-23T11:06:26.334Z,10.70
2017-12-23T11:08:54.712Z,11.27
2017-12-23T11:11:22.365Z,11.37
2017-12-23T11:13:49.899Z,10.17
2017-12-23T11:16:17.575Z,11.30
2017-12-23T11:18:46.003Z,11.27
2017-12-23T11:21:14.432Z,11.63
2017-12-23T11:23:41.987Z,10.17
2017-12-23T11:26:09.531Z,10.10
2017-12-23T11:28:37.178Z,11.50
2017-12-23T11:31:04.718Z,10.10
2017-12-23T11:33:32.253Z,9.77
2017-12-23T11:36:00.235Z,10.50
2017-12-23T11:38:28.513Z,10.80
2017-12-23T11:40:56.126Z,10.63
2017-12-23T11:46:04.289Z,10.90
2017-12-23T11:48:31.914Z,10.27
2017-12-23T11:50:59.998Z,10.13
2017-12-23T11:53:27.606Z,10.40
2017-12-23T11:55:55.297Z,10.17
2017-12-23T11:58:22.923Z,9.60
2017-12-23T12:00:50.460Z,10.03
2017-12-23T12:03:18.004Z,10.17
2017-12-23T12:05:46.375Z,10.03
2017-12-23T12:08:13.942Z,9.30
2017-12-23T12:10:41.599Z,9.17
2017-12-23T12:13:09.138Z,8.33
2017-12-23T12:15:36.817Z,9.17
2017-12-23T12:18:04.378Z,8.60
2017-12-23T12:20:31.882Z,8.57
2017-12-23T12:22:59.416Z,8.80
2017-12-23T12:25:26.941Z,9.00
2017-12-23T12:27:54.493Z,9.80
2017-12-23T12:30:22.070Z,9.17
2017-12-23T12:32:49.750Z,8.57
2017-12-23T12:35:18.064Z,8.47
2017-12-23T12:37:46.539Z,8.77
2017-12-23T12:40:14.079Z,7.30
2017-12-23T12:42:42.487Z,8.80
2017-12-23T12:45:10.007Z,7.80
2017-12-23T12:47:37.680Z,7.87
2017-12-23T12:50:05.252Z,8.37
2017-12-23T12:52:32.923Z,8.50
2017-12-23T12:55:00.540Z,8.07
2017-12-23T12:57:28.054Z,7.27
2017-12-23T12:59:55.643Z,8.10
2017-12-23T13:02:23.229Z,7.20
2017-12-23T13:04:50.773Z,8.30
2017-12-23T13:07:19.082Z,7.50
2017-12-23T13:09:46.616Z,6.90
2017-12-23T13:12:14.172Z,7.50
2017-12-23T13:14:41.733Z,7.50
2017-12-23T13:17:09.281Z,7.93
2017-12-23T13:19:36.848Z,7.47
2017-12-23T13:22:04.409Z,8.00
2017-12-23T13:24:31.975Z,9.10
2017-12-23T13:26:59.510Z,7.77
2017-12-23T13:29:27.020Z,7.03
2017-12-23T13:31:54.612Z,8.00
2017-12-23T13:34:22.195Z,8.33
2017-12-23T13:36:49.750Z,7.20
2017-12-23T13:39:17.383Z,8.17
2017-12-23T13:41:44.946Z,7.70
2017-12-23T13:44:12.586Z,9.47
2017-12-23T13:46:40.151Z,7.57
2017-12-23T13:49:08.495Z,7.70
2017-12-23T13:51:42.975Z,7.30
2017-12-23T13:54:10.593Z,8.00
2017-12-23T13:56:38.205Z,7.73
2017-12-23T13:59:05.759Z,7.93
2017-12-23T14:01:33.374Z,7.93
2017-12-23T14:04:01.071Z,7.33
2017-12-23T14:06:28.592Z,7.67
2017-12-23T14:08:56.899Z,7.60
2017-12-23T14:11:25.192Z,8.60
2017-12-23T14:13:53.512Z,7.30
2017-12-23T14:16:21.801Z,7.97
2017-12-23T14:18:56.164Z,7.20
2017-12-23T14:21:23.672Z,7.23
2017-12-23T14:23:51.335Z,7.67
2017-12-23T14:26:18.972Z,7.77
2017-12-23T14:28:46.488Z,7.80
2017-12-23T14:31:14.850Z,8.80
2017-12-23T14:33:42.379Z,8.47
2017-12-23T14:36:09.944Z,9.23
2017-12-23T14:38:37.484Z,8.67
2017-12-23T14:41:05.033Z,7.40
2017-12-23T14:43:32.596Z,8.50
2017-12-23T14:46:00.123Z,9.10
2017-12-23T14:48:27.656Z,7.10
2017-12-23T14:50:55.265Z,9.23
2017-12-23T14:53:22.816Z,8.73
2017-12-23T14:55:51.127Z,8.83
2017-12-23T14:58:19.503Z,8.70
2017-12-23T15:00:47.042Z,8.47
2017-12-23T15:03:14.671Z,9.27
2017-12-23T15:05:42.196Z,8.90
2017-12-23T15:08:09.937Z,8.70
2017-12-23T15:10:37.522Z,8.00
2017-12-23T15:13:05.069Z,10.47
2017-12-23T15:15:32.639Z,8.90
2017-12-23T15:18:00.178Z,7.17
2017-12-23T15:20:28.511Z,8.67
2017-12-23T15:22:56.113Z,8.90
2017-12-23T15:25:23.703Z,7.20
2017-12-23T15:27:52.029Z,8.30
2017-12-23T15:30:20.331Z,8.60
2017-12-23T15:32:48.624Z,8.27
2017-12-23T15:35:16.953Z,9.43
2017-12-23T15:37:44.566Z,7.60
2017-12-23T15:40:12.177Z,8.60
2017-12-23T15:42:39.837Z,8.37
2017-12-23T15:45:07.394Z,8.80
2017-12-23T15:47:34.953Z,8.43
2017-12-23T15:50:02.514Z,8.63
2017-12-23T15:52:30.127Z,8.40
2017-12-23T15:54:58.196Z,9.03
2017-12-23T15:57:25.729Z,8.60
2017-12-23T15:59:53.272Z,8.87
2017-12-23T16:02:21.654Z,8.17
2017-12-23T16:04:49.230Z,8.20
2017-12-23T16:07:16.814Z,7.80
2017-12-23T16:09:44.359Z,8.17
2017-12-23T16:12:11.906Z,9.50
2017-12-23T16:14:39.459Z,9.47
2017-12-23T16:17:07.057Z,11.10
2017-12-23T16:19:34.577Z,8.77
2017-12-23T16:22:02.152Z,9.43
2017-12-23T16:24:30.522Z,9.70
2017-12-23T16:26:58.062Z,7.80
2017-12-23T16:29:25.643Z,9.90
2017-12-23T16:31:53.175Z,9.87
2017-12-23T16:34:21.468Z,9.77
2017-12-23T16:36:50.002Z,8.93
2017-12-23T16:39:17.624Z,10.50
2017-12-23T16:41:45.207Z,10.17
2017-12-23T16:44:12.759Z,10.07
2017-12-23T16:46:41.049Z,10.80
2017-12-23T16:49:08.605Z,10.10
2017-12-23T16:51:36.180Z,10.97
2017-12-23T16:54:03.781Z,10.03
2017-12-23T16:56:31.397Z,10.80
2017-12-23T16:58:58.962Z,10.13
2017-12-23T17:01:26.491Z,11.07
2017-12-23T17:03:54.225Z,10.30
2017-12-23T17:06:21.753Z,11.43
2017-12-23T17:08:49.271Z,11.10
2017-12-23T17:11:17.560Z,12.33
2017-12-23T17:13:45.112Z,12.53
2017-12-23T17:16:12.773Z,11.33
2017-12-23T17:18:40.307Z,12.37
2017-12-23T17:21:07.824Z,11.07
2017-12-23T17:23:36.236Z,10.60
2017-12-23T17:26:03.808Z,12.70
2017-12-23T17:28:43.992Z,11.33
2017-12-23T17:31:11.697Z,12.67
2017-12-23T17:33:39.255Z,11.73
2017-12-23T17:36:06.887Z,11.97
2017-12-23T17:38:34.431Z,11.67
2017-12-23T17:41:01.957Z,10.83
2017-12-23T17:43:29.500Z,11.63
2017-12-23T17:45:57.038Z,10.97
2017-12-23T17:48:24.589Z,12.57
2017-12-23T17:50:52.170Z,12.10
2017-12-23T17:53:20.571Z,12.17
2017-12-23T17:55:48.882Z,11.80
2017-12-23T17:58:17.251Z,11.63
2017-12-23T18:00:44.841Z,12.60
2017-12-23T18:03:12.425Z,13.20
2017-12-23T18:05:40.054Z,13.03
2017-12-23T18:08:07.575Z,13.03
2017-12-23T18:10:35.905Z,14.70
2017-12-23T18:13:03.413Z,13.63
2017-12-23T18:15:31.058Z,13.03
2017-12-23T18:17:58.622Z,14.50
2017-12-23T18:20:27.151Z,13.97
2017-12-23T18:22:54.784Z,13.77
2017-12-23T18:25:22.426Z,13.07
2017-12-23T18:27:50.638Z,13.00
2017-12-23T18:30:18.224Z,15.30
2017-12-23T18:32:45.811Z,14.00
2017-12-23T18:35:13.391Z,13.40
2017-12-23T18:37:41.002Z,12.63
2017-12-23T18:40:08.633Z,13.13
2017-12-23T18:42:36.866Z,13.80
2017-12-23T18:45:04.439Z,13.57
2017-12-23T18:47:31.979Z,13.80
2017-12-23T18:50:00.316Z,13.80
2017-12-23T18:52:27.856Z,13.37
2017-12-23T18:54:56.901Z,14.47
2017-12-23T18:57:24.540Z,12.73
2017-12-23T18:59:52.123Z,12.63
2017-12-23T19:02:19.858Z,13.30
2017-12-23T19:04:47.431Z,12.80
2017-12-23T19:07:14.990Z,12.73
2017-12-23T19:09:42.568Z,11.70
2017-12-23T19:12:10.958Z,11.93
2017-12-23T19:14:38.615Z,13.37
2017-12-23T19:17:06.212Z,10.90
2017-12-23T19:19:33.761Z,12.27
2017-12-23T19:22:02.109Z,12.20
2017-12-23T19:24:29.630Z,10.90
2017-12-23T19:26:57.275Z,12.23
2017-12-23T19:29:25.546Z,12.37
2017-12-23T19:31:53.092Z,11.20
2017-12-23T19:34:20.606Z,11.27
2017-12-23T19:36:48.315Z,10.30
2017-12-23T19:39:15.951Z,10.63
2017-12-23T19:41:43.513Z,11.40
2017-12-23T19:44:11.824Z,10.80
2017-12-23T19:46:39.476Z,10.53
2017-12-23T19:49:07.048Z,11.30
2017-12-23T19:51:34.585Z,11.53
2017-12-23T19:54:02.129Z,11.07
2017-12-23T19:56:29.693Z,10.20
2017-12-23T19:58:57.981Z,10.80
2017-12-23T20:01:25.510Z,10.87
2017-12-23T20:03:53.089Z,12.83
2017-12-23T20:06:20.616Z,10.80
2017-12-23T20:08:48.347Z,11.17
2017-12-23T20:11:16.663Z,11.10
2017-12-23T20:13:44.193Z,11.50
2017-12-23T20:16:11.817Z,10.20
2017-12-23T20:18:39.409Z,11.50
2017-12-23T20:21:06.975Z,11.00
2017-12-23T20:23:34.502Z,11.10
2017-12-23T20:26:02.061Z,12.20
2017-12-23T20:28:29.639Z,11.77
2017-12-23T20:30:57.197Z,12.33
2017-12-23T20:33:25.549Z,12.63
2017-12-23T20:35:53.081Z,14.40
2017-12-23T20:38:20.721Z,14.30
2017-12-23T20:40:48.269Z,14.57
2017-12-23T20:43:15.870Z,17.53
2017-12-23T20:45:43.421Z,15.40
2017-12-23T20:48:10.942Z,17.70
2017-12-23T20:50:38.502Z,16.50
2017-12-23T20:53:06.082Z,16.27
2017-12-23T20:55:33.818Z,17.87
2017-12-23T20:58:02.101Z,18.03
2017-12-23T21:00:29.653Z,17.00
2017-12-23T21:02:57.196Z,17.93
2017-12-23T21:05:24.741Z,16.87
2017-12-23T21:07:52.323Z,19.57
2017-12-23T21:10:19.847Z,18.57
2017-12-23T21:12:47.437Z,19.37
2017-12-23T21:15:15.008Z,19.10
2017-12-23T21:17:42.536Z,21.50
2017-12-23T21:20:10.084Z,19.67
2017-12-23T21:22:37.620Z,17.90
2017-12-23T21:25:05.959Z,18.97
2017-12-23T21:27:33.498Z,18.50
2017-12-23T21:30:01.921Z,18.00
2017-12-23T21:32:30.870Z,17.97
2017-12-23T21:34:58.431Z,17.83
2017-12-23T21:37:25.988Z,18.33
2017-12-23T21:39:53.576Z,17.53
2017-12-23T21:42:21.144Z,18.47
2017-12-23T21:44:48.729Z,19.50
2017-12-23T21:47:16.280Z,18.10
2017-12-23T21:49:43.865Z,18.60
2017-12-23T21:52:11.417Z,19.17
2017-12-23T21:54:38.953Z,19.00
2017-12-23T21:57:06.523Z,17.67
2017-12-23T21:59:34.099Z,18.77
2017-12-23T22:02:01.697Z,19.43
2017-12-23T22:04:29.237Z,17.53
2017-12-23T22:06:56.805Z,20.00
2017-12-23T22:09:25.112Z,18.60
2017-12-23T22:11:53.424Z,17.83
2017-12-23T22:14:21.732Z,18.00
2017-12-23T22:16:50.097Z,18.60
2017-12-23T22:19:17.876Z,17.60
2017-12-23T22:21:45.562Z,19.10
2017-12-23T22:24:13.138Z,18.40
2017-12-23T22:26:41.583Z,18.83
2017-12-23T22:29:09.900Z,20.30
2017-12-23T22:31:37.406Z,18.23
2017-12-23T22:34:04.966Z,18.03
2017-12-23T22:36:32.493Z,19.37
2017-12-23T22:39:00.077Z,18.60
2017-12-23T22:41:27.621Z,18.53
2017-12-23T22:43:55.293Z,18.80
2017-12-23T22:46:22.840Z,17.90
2017-12-23T22:48:50.392Z,17.53
2017-12-23T22:51:17.937Z,17.67
2017-12-23T22:53:45.469Z,18.57
2017-12-23T22:56:13.024Z,18.10
2017-12-23T22:58:40.555Z,17.27
2017-12-23T23:01:08.133Z,17.30
2017-12-23T23:03:35.658Z,15.90
2017-12-23T23:06:03.192Z,15.30
2017-12-23T23:08:31.505Z,18.23
2017-12-23T23:10:59.077Z,18.47
2017-12-23T23:13:26.604Z,16.57
2017-12-23T23:15:54.171Z,15.13
2017-12-23T23:18:21.741Z,16.70
2017-12-23T23:20:49.267Z,16.13
2017-12-23T23:23:16.849Z,17.03
2017-12-23T23:25:44.439Z,16.77
2017-12-23T23:28:11.971Z,15.97
2017-12-23T23:30:40.262Z,16.00
2017-12-23T23:33:07.773Z,17.43
2017-12-23T23:35:36.101Z,15.60
2017-12-23T23:38:03.636Z,17.50
2017-12-23T23:40:31.385Z,16.10
2017-12-23T23:42:59.024Z,16.43
2017-12-23T23:45:26.770Z,16.40
2017-12-23T23:47:54.358Z,17.30
2017-12-23T23:50:21.987Z,17.83
2017-12-23T23:52:49.517Z,15.53
2017-12-23T23:55:17.081Z,14.70
2017-12-23T23:57:44.654Z,16.83
